createdAt,value
2019-01-30T00:00:36.877Z,6.50
2019-01-30T00:03:07.381Z,12.37
2019-01-30T00:05:37.876Z,7.20
2019-01-30T00:08:08.275Z,7.07
2019-01-30T00:10:38.797Z,7.03
2019-01-30T00:13:09.058Z,7.10
2019-01-30T00:15:39.806Z,9.47
2019-01-30T00:18:10.028Z,7.47
2019-01-30T00:20:40.642Z,8.80
2019-01-30T00:23:12.568Z,6.83
2019-01-30T00:25:44.052Z,7.77
2019-01-30T00:28:14.248Z,7.13
2019-01-30T00:30:44.530Z,6.57
2019-01-30T00:33:14.927Z,6.57
2019-01-30T00:35:45.112Z,6.77
2019-01-30T00:38:15.675Z,7.30
2019-01-30T00:40:46.046Z,14.17
2019-01-30T00:43:16.563Z,7.13
2019-01-30T00:45:47.909Z,6.23
2019-01-30T00:48:18.580Z,7.27
2019-01-30T00:50:48.901Z,8.13
2019-01-30T00:53:19.643Z,7.37
2019-01-30T00:55:50.387Z,7.33
2019-01-30T00:58:20.695Z,6.20
2019-01-30T01:00:53.131Z,7.17
2019-01-30T01:03:23.737Z,6.60
2019-01-30T01:05:54.030Z,5.43
2019-01-30T01:08:24.667Z,8.33
2019-01-30T01:10:54.947Z,14.17
2019-01-30T01:13:25.743Z,7.33
2019-01-30T01:15:56.101Z,12.43
2019-01-30T01:18:26.320Z,15.73
2019-01-30T01:20:56.663Z,10.30
2019-01-30T01:23:26.917Z,11.83
2019-01-30T01:25:57.253Z,10.87
2019-01-30T01:28:27.631Z,13.43
2019-01-30T01:30:58.313Z,10.77
2019-01-30T01:33:28.619Z,9.90
2019-01-30T01:35:58.895Z,10.50
2019-01-30T01:38:29.033Z,9.77
2019-01-30T01:40:59.260Z,9.87
2019-01-30T01:43:29.505Z,7.43
2019-01-30T01:45:59.957Z,9.97
2019-01-30T01:48:30.178Z,9.23
2019-01-30T01:51:00.321Z,9.63
2019-01-30T01:53:30.577Z,10.23
2019-01-30T01:56:01.079Z,10.17
2019-01-30T01:58:31.559Z,11.23
2019-01-30T02:01:01.856Z,8.57
2019-01-30T02:03:32.348Z,9.53
2019-01-30T02:06:03.193Z,11.80
2019-01-30T02:08:34.503Z,9.20
2019-01-30T02:11:06.232Z,10.90
2019-01-30T02:13:36.589Z,10.67
2019-01-30T02:16:06.965Z,12.70
2019-01-30T02:18:38.120Z,8.20
2019-01-30T02:21:09.115Z,9.47
2019-01-30T02:23:39.397Z,11.43
2019-01-30T02:26:09.878Z,10.53
2019-01-30T02:28:40.503Z,11.27
2019-01-30T02:31:10.748Z,11.70
2019-01-30T02:33:40.897Z,10.43
2019-01-30T02:36:11.061Z,10.07
2019-01-30T02:38:41.246Z,9.77
2019-01-30T02:41:11.443Z,10.40
2019-01-30T02:43:41.950Z,9.10
2019-01-30T02:46:12.063Z,10.60
2019-01-30T02:48:43.316Z,10.17
2019-01-30T02:51:13.485Z,11.23
2019-01-30T02:53:48.444Z,11.60
2019-01-30T02:56:26.407Z,11.07
2019-01-30T02:58:56.705Z,11.00
2019-01-30T03:01:27.310Z,12.17
2019-01-30T03:03:57.800Z,11.73
2019-01-30T03:06:28.368Z,7.07
2019-01-30T03:08:58.481Z,8.90
2019-01-30T03:11:28.559Z,8.23
2019-01-30T03:14:02.803Z,9.20
2019-01-30T03:16:33.047Z,9.43
2019-01-30T03:19:03.449Z,9.10
2019-01-30T03:21:33.752Z,10.37
2019-01-30T03:24:05.372Z,10.00
2019-01-30T03:26:36.827Z,10.63
2019-01-30T03:29:07.106Z,10.07
2019-01-30T03:31:37.814Z,8.50
2019-01-30T03:34:08.058Z,9.73
2019-01-30T03:36:39.688Z,9.30
2019-01-30T03:39:10.076Z,11.20
2019-01-30T03:41:40.536Z,9.73
2019-01-30T03:44:10.771Z,9.67
2019-01-30T03:46:42.546Z,10.90
2019-01-30T03:49:12.759Z,9.27
2019-01-30T03:51:43.085Z,9.33
2019-01-30T03:54:13.329Z,9.37
2019-01-30T03:56:44.148Z,9.73
2019-01-30T03:59:14.277Z,9.20
2019-01-30T04:01:45.530Z,8.93
2019-01-30T04:04:15.828Z,10.27
2019-01-30T04:06:45.972Z,9.80
2019-01-30T04:09:16.280Z,11.40
2019-01-30T04:11:47.024Z,11.13
2019-01-30T04:14:17.232Z,12.43
2019-01-30T04:16:47.451Z,9.77
2019-01-30T04:19:18.182Z,11.70
2019-01-30T04:21:48.496Z,15.27
2019-01-30T04:24:18.765Z,10.70
2019-01-30T04:26:48.969Z,10.43
2019-01-30T04:29:19.189Z,10.73
2019-01-30T04:31:49.531Z,48.73
2019-01-30T04:34:19.823Z,10.93
2019-01-30T04:36:50.829Z,11.00
2019-01-30T04:39:20.990Z,9.70
2019-01-30T04:41:51.097Z,11.70
2019-01-30T04:44:22.858Z,11.93
2019-01-30T04:46:53.163Z,19.23
2019-01-30T04:49:24.325Z,10.23
2019-01-30T04:51:54.532Z,9.77
2019-01-30T04:54:24.912Z,11.43
2019-01-30T04:56:55.202Z,10.53
2019-01-30T04:59:25.431Z,10.20
2019-01-30T05:01:55.731Z,13.63
2019-01-30T05:04:26.420Z,9.60
2019-01-30T05:06:56.609Z,11.93
2019-01-30T05:09:27.271Z,11.77
2019-01-30T05:11:57.905Z,10.17
2019-01-30T05:14:28.169Z,9.03
2019-01-30T05:16:58.387Z,10.73
2019-01-30T05:19:29.093Z,11.07
2019-01-30T05:21:59.206Z,11.20
2019-01-30T05:24:29.711Z,10.03
2019-01-30T05:26:59.936Z,12.73
2019-01-30T05:29:30.437Z,12.20
2019-01-30T05:32:01.617Z,14.33
2019-01-30T05:34:34.371Z,15.83
2019-01-30T05:37:04.584Z,14.67
2019-01-30T05:39:34.971Z,12.50
2019-01-30T05:42:05.358Z,13.67
2019-01-30T05:44:35.668Z,13.27
2019-01-30T05:47:06.084Z,12.53
2019-01-30T05:49:36.599Z,15.77
2019-01-30T05:52:07.954Z,13.03
2019-01-30T05:54:38.460Z,16.40
2019-01-30T05:57:08.810Z,24.67
2019-01-30T05:59:39.396Z,11.67
2019-01-30T06:02:12.142Z,13.80
2019-01-30T06:04:41.009Z,17.80
2019-01-30T06:07:11.636Z,10.23
2019-01-30T06:09:41.873Z,9.83
2019-01-30T06:12:12.077Z,11.97
2019-01-30T06:14:42.862Z,14.00
2019-01-30T06:17:12.873Z,9.03
2019-01-30T06:19:43.201Z,10.40
2019-01-30T06:22:13.495Z,9.60
2019-01-30T06:24:43.787Z,7.80
2019-01-30T06:27:16.054Z,3.37
2019-01-30T06:29:46.302Z,3.73
2019-01-30T06:32:21.919Z,5.53
2019-01-30T06:34:48.592Z,7.60
2019-01-30T06:37:19.074Z,5.80
2019-01-30T06:39:48.743Z,5.63
2019-01-30T06:42:20.542Z,4.87
2019-01-30T06:44:51.168Z,5.63
2019-01-30T06:47:23.192Z,3.30
2019-01-30T06:49:53.466Z,5.20
2019-01-30T06:52:23.674Z,3.63
2019-01-30T06:54:54.292Z,4.27
2019-01-30T06:57:25.461Z,4.20
2019-01-30T06:59:58.918Z,3.53
2019-01-30T07:02:32.271Z,3.60
2019-01-30T07:07:54.824Z,5.43
2019-01-30T07:10:26.727Z,7.00
2019-01-30T07:12:58.642Z,7.57
2019-01-30T07:15:29.049Z,4.93
2019-01-30T07:18:02.849Z,6.27
2019-01-30T07:20:34.132Z,3.30
2019-01-30T07:23:06.119Z,7.63
2019-01-30T07:25:36.855Z,8.30
2019-01-30T07:28:07.361Z,3.90
2019-01-30T07:30:37.666Z,4.87
2019-01-30T07:33:08.397Z,3.53
2019-01-30T07:35:38.915Z,5.53
2019-01-30T07:38:09.682Z,4.53
2019-01-30T07:40:41.333Z,7.13
2019-01-30T07:43:12.330Z,4.17
2019-01-30T07:45:42.931Z,4.77
2019-01-30T07:48:13.793Z,4.00
2019-01-30T07:50:46.415Z,4.27
2019-01-30T07:53:17.154Z,3.03
2019-01-30T07:55:47.475Z,12.47
2019-01-30T07:58:18.095Z,4.03
2019-01-30T08:00:48.778Z,6.07
2019-01-30T08:03:20.693Z,5.07
2019-01-30T08:05:51.306Z,6.33
2019-01-30T08:08:21.453Z,5.33
2019-01-30T08:10:51.675Z,3.07
2019-01-30T08:13:23.619Z,3.43
2019-01-30T08:15:54.178Z,10.27
2019-01-30T08:18:24.483Z,4.10
2019-01-30T08:20:55.142Z,6.13
2019-01-30T08:23:25.740Z,2.33
2019-01-30T08:25:55.919Z,2.23
2019-01-30T08:28:29.214Z,2.90
2019-01-30T08:31:00.221Z,4.73
2019-01-30T08:33:30.195Z,1.10
2019-01-30T08:36:00.442Z,0.93
2019-01-30T08:38:31.169Z,2.17
2019-01-30T08:41:01.339Z,0.60
2019-01-30T08:43:32.035Z,1.63
2019-01-30T08:46:02.172Z,1.67
2019-01-30T08:48:34.294Z,2.73
2019-01-30T08:51:04.690Z,0.40
2019-01-30T08:53:35.375Z,1.43
2019-01-30T08:56:07.698Z,0.83
2019-01-30T08:58:37.908Z,0.30
2019-01-30T09:01:10.105Z,0.77
2019-01-30T09:03:40.871Z,0.80
2019-01-30T09:06:11.177Z,0.90
2019-01-30T09:08:41.552Z,0.20
2019-01-30T09:11:11.794Z,0.40
2019-01-30T09:13:41.945Z,0.20
2019-01-30T09:16:12.120Z,0.50
2019-01-30T09:18:54.879Z,3.40
2019-01-30T09:21:25.045Z,0.50
2019-01-30T09:23:55.295Z,0.93
2019-01-30T09:26:25.785Z,0.53
2019-01-30T09:28:55.945Z,0.30
2019-01-30T09:31:26.686Z,4.60
2019-01-30T09:33:57.196Z,0.30
2019-01-30T09:36:27.544Z,0.57
2019-01-30T09:38:57.938Z,3.43
2019-01-30T09:41:28.393Z,1.87
2019-01-30T09:43:58.945Z,2.07
2019-01-30T09:46:31.711Z,3.13
2019-01-30T09:49:02.655Z,0.60
2019-01-30T09:51:33.012Z,0.70
2019-01-30T09:54:04.010Z,2.77
2019-01-30T09:56:34.406Z,0.53
2019-01-30T09:59:05.270Z,0.20
2019-01-30T10:01:36.394Z,0.70
2019-01-30T10:04:07.325Z,1.27
2019-01-30T10:06:37.567Z,0.20
2019-01-30T10:09:13.029Z,0.30
2019-01-30T10:11:43.415Z,0.40
2019-01-30T10:14:13.822Z,1.50
2019-01-30T10:16:45.077Z,0.83
2019-01-30T10:19:16.063Z,1.63
2019-01-30T10:21:46.340Z,2.53
2019-01-30T10:24:20.134Z,0.97
2019-01-30T10:26:50.313Z,0.20
2019-01-30T10:29:21.256Z,3.43
2019-01-30T10:31:51.533Z,1.13
2019-01-30T10:34:22.570Z,0.10
2019-01-30T10:36:52.891Z,1.97
2019-01-30T10:39:25.192Z,1.70
2019-01-30T10:41:55.492Z,0.30
2019-01-30T10:44:26.509Z,1.47
2019-01-30T10:46:56.832Z,0.50
2019-01-30T10:49:27.448Z,0.83
2019-01-30T10:51:57.143Z,0.50
2019-01-30T10:54:27.186Z,0.87
2019-01-30T10:56:58.661Z,2.30
2019-01-30T10:59:28.918Z,1.17
2019-01-30T11:01:59.263Z,1.17
2019-01-30T11:04:30.051Z,0.40
2019-01-30T11:07:00.296Z,0.83
2019-01-30T11:09:30.857Z,0.60
2019-01-30T11:12:01.072Z,1.90
2019-01-30T11:14:33.106Z,0.40
2019-01-30T11:17:03.270Z,0.40
2019-01-30T11:19:33.536Z,0.43
2019-01-30T11:22:03.941Z,3.00
2019-01-30T11:24:34.458Z,0.40
2019-01-30T11:27:04.931Z,1.20
2019-01-30T11:29:38.285Z,1.33
2019-01-30T11:32:09.728Z,1.40
2019-01-30T11:34:40.361Z,0.87
2019-01-30T11:37:10.698Z,0.90
2019-01-30T11:39:41.222Z,1.37
2019-01-30T11:42:11.527Z,3.57
2019-01-30T11:44:42.150Z,0.43
2019-01-30T11:47:12.415Z,1.27
2019-01-30T11:49:46.584Z,0.20
2019-01-30T11:52:17.392Z,0.90
2019-01-30T11:54:48.330Z,0.50
2019-01-30T11:57:19.168Z,1.60
2019-01-30T11:59:50.862Z,0.50
2019-01-30T12:02:21.680Z,0.87
2019-01-30T12:04:52.047Z,0.50
2019-01-30T12:07:22.661Z,1.70
2019-01-30T12:09:55.754Z,1.10
2019-01-30T12:12:25.086Z,2.67
2019-01-30T12:14:55.296Z,1.47
2019-01-30T12:17:25.460Z,2.73
2019-01-30T12:19:55.797Z,0.60
2019-01-30T12:22:26.497Z,1.70
2019-01-30T12:24:57.559Z,0.40
2019-01-30T12:27:27.787Z,0.70
2019-01-30T12:29:58.005Z,1.77
2019-01-30T12:32:28.353Z,0.83
2019-01-30T12:34:58.615Z,2.23
2019-01-30T12:37:28.799Z,1.43
2019-01-30T12:39:58.948Z,4.00
2019-01-30T12:42:29.191Z,0.30
2019-01-30T12:44:59.713Z,1.33
2019-01-30T12:47:29.910Z,0.57
2019-01-30T12:50:01.996Z,2.97
2019-01-30T12:52:33.228Z,1.70
2019-01-30T12:55:03.961Z,2.13
2019-01-30T12:57:34.118Z,1.23
2019-01-30T13:00:08.662Z,0.50
2019-01-30T13:02:40.522Z,0.70
2019-01-30T13:05:11.343Z,1.63
2019-01-30T13:07:42.348Z,1.17
2019-01-30T13:10:12.832Z,1.87
2019-01-30T13:12:43.256Z,2.30
2019-01-30T13:15:15.246Z,4.17
2019-01-30T13:17:46.779Z,0.70
2019-01-30T13:20:21.172Z,2.73
2019-01-30T13:22:52.485Z,2.60
2019-01-30T13:25:25.072Z,6.30
2019-01-30T13:27:55.160Z,1.37
2019-01-30T13:30:28.312Z,1.93
2019-01-30T13:32:58.690Z,0.80
2019-01-30T13:35:28.976Z,0.60
2019-01-30T13:37:59.128Z,1.40
2019-01-30T13:40:31.576Z,1.53
2019-01-30T13:43:01.846Z,0.63
2019-01-30T13:45:32.612Z,2.50
2019-01-30T13:48:03.198Z,1.70
2019-01-30T13:50:33.649Z,1.13
2019-01-30T13:53:04.022Z,0.90
2019-01-30T13:55:35.932Z,1.03
2019-01-30T13:58:06.184Z,1.47
2019-01-30T14:00:37.395Z,1.77
2019-01-30T14:03:12.704Z,2.07
2019-01-30T14:05:42.680Z,0.80
2019-01-30T14:08:13.686Z,1.77
2019-01-30T14:10:44.404Z,2.80
2019-01-30T14:13:14.518Z,1.20
2019-01-30T14:15:45.386Z,1.10
2019-01-30T14:18:16.579Z,0.53
2019-01-30T14:20:46.950Z,1.93
2019-01-30T14:23:17.458Z,3.60
2019-01-30T14:25:48.359Z,1.23
2019-01-30T14:28:18.599Z,2.60
2019-01-30T14:30:48.814Z,3.23
2019-01-30T14:33:19.031Z,3.03
2019-01-30T14:35:52.185Z,2.00
2019-01-30T14:38:22.517Z,1.37
2019-01-30T14:40:53.377Z,1.80
2019-01-30T14:43:23.621Z,2.53
2019-01-30T14:45:54.090Z,0.50
2019-01-30T14:48:24.299Z,1.20
2019-01-30T14:50:54.623Z,2.73
2019-01-30T14:53:24.867Z,2.77
2019-01-30T14:55:55.486Z,3.77
2019-01-30T14:58:26.327Z,2.97
2019-01-30T15:00:57.584Z,3.17
2019-01-30T15:03:27.809Z,1.17
2019-01-30T15:05:58.336Z,0.97
2019-01-30T15:08:28.546Z,2.30
2019-01-30T15:10:59.033Z,2.43
2019-01-30T15:13:29.784Z,0.80
2019-01-30T15:16:00.494Z,3.17
2019-01-30T15:18:30.811Z,2.07
2019-01-30T15:21:00.960Z,1.70
2019-01-30T15:23:31.150Z,1.30
2019-01-30T15:26:02.740Z,4.00
2019-01-30T15:28:33.049Z,2.80
2019-01-30T15:31:03.670Z,1.10
2019-01-30T15:33:33.931Z,4.87
2019-01-30T15:36:04.738Z,1.83
2019-01-30T15:38:34.907Z,3.33
2019-01-30T15:41:04.488Z,1.80
2019-01-30T15:43:35.402Z,3.90
2019-01-30T15:46:06.526Z,2.23
2019-01-30T15:48:36.705Z,3.63
2019-01-30T15:51:08.501Z,1.77
2019-01-30T15:53:38.106Z,2.53
2019-01-30T15:56:10.891Z,4.80
2019-01-30T15:58:43.638Z,2.17
2019-01-30T16:01:19.398Z,1.23
2019-01-30T16:03:49.727Z,1.97
2019-01-30T16:06:20.341Z,2.50
2019-01-30T16:08:50.522Z,1.57
2019-01-30T16:11:25.014Z,2.90
2019-01-30T16:13:55.152Z,1.07
2019-01-30T16:16:25.736Z,1.40
2019-01-30T16:18:55.490Z,0.83
2019-01-30T16:21:25.973Z,2.50
2019-01-30T16:23:56.406Z,1.67
2019-01-30T16:26:26.627Z,2.40
2019-01-30T16:28:56.964Z,8.97
2019-01-30T16:31:27.489Z,9.03
2019-01-30T16:33:57.665Z,6.07
2019-01-30T16:36:27.837Z,3.47
2019-01-30T16:38:58.367Z,3.37
2019-01-30T16:41:28.935Z,2.47
2019-01-30T16:43:59.239Z,3.50
2019-01-30T16:46:30.479Z,5.87
2019-01-30T16:49:00.780Z,1.83
2019-01-30T16:51:31.141Z,3.87
2019-01-30T16:54:04.312Z,2.83
2019-01-30T16:56:36.098Z,4.30
2019-01-30T16:59:06.738Z,0.77
2019-01-30T17:01:37.386Z,2.33
2019-01-30T17:04:07.682Z,2.87
2019-01-30T17:06:38.389Z,1.90
2019-01-30T17:09:09.155Z,1.30
2019-01-30T17:11:39.652Z,4.10
2019-01-30T17:14:10.200Z,2.77
2019-01-30T17:16:40.505Z,2.83
2019-01-30T17:19:11.058Z,2.33
2019-01-30T17:21:42.493Z,2.40
2019-01-30T17:24:15.593Z,1.10
2019-01-30T17:26:47.434Z,2.30
2019-01-30T17:29:18.224Z,1.40
2019-01-30T17:31:48.610Z,3.70
2019-01-30T17:34:19.436Z,4.07
2019-01-30T17:36:49.747Z,2.80
2019-01-30T17:39:20.453Z,8.93
2019-01-30T17:41:51.644Z,1.63
2019-01-30T17:44:22.365Z,4.23
2019-01-30T17:46:55.398Z,2.63
2019-01-30T17:49:26.169Z,2.50
2019-01-30T17:51:56.736Z,1.80
2019-01-30T17:54:28.209Z,2.13
2019-01-30T17:57:00.006Z,2.73
2019-01-30T17:59:30.249Z,3.10
2019-01-30T18:02:00.982Z,1.50
2019-01-30T18:04:31.304Z,1.97
2019-01-30T18:07:03.090Z,2.23
2019-01-30T18:09:33.512Z,1.53
2019-01-30T18:12:04.142Z,3.50
2019-01-30T18:14:34.396Z,3.77
2019-01-30T18:17:04.605Z,4.77
2019-01-30T18:19:35.129Z,28.97
2019-01-30T18:22:06.069Z,38.20
2019-01-30T18:24:36.596Z,6.97
2019-01-30T18:27:06.735Z,2.97
2019-01-30T18:29:36.962Z,4.07
2019-01-30T18:32:09.391Z,2.80
2019-01-30T18:34:41.452Z,3.37
2019-01-30T18:37:11.832Z,4.33
2019-01-30T18:39:42.580Z,6.60
2019-01-30T18:42:13.394Z,3.70
2019-01-30T18:44:43.697Z,4.00
2019-01-30T18:47:14.657Z,3.90
2019-01-30T18:49:45.253Z,4.03
2019-01-30T18:52:17.233Z,5.53
2019-01-30T18:54:47.966Z,2.67
2019-01-30T18:57:18.178Z,5.47
2019-01-30T18:59:48.422Z,2.47
2019-01-30T19:02:19.143Z,3.37
2019-01-30T19:04:54.003Z,1.77
2019-01-30T19:07:24.416Z,2.07
2019-01-30T19:09:55.150Z,4.90
2019-01-30T19:12:25.654Z,3.33
2019-01-30T19:14:56.063Z,3.10
2019-01-30T19:17:26.801Z,4.73
2019-01-30T19:19:57.344Z,3.57
2019-01-30T19:22:27.877Z,6.73
2019-01-30T19:25:00.601Z,2.70
2019-01-30T19:27:31.632Z,4.57
2019-01-30T19:30:04.438Z,3.93
2019-01-30T19:32:34.990Z,2.50
2019-01-30T19:35:06.091Z,2.67
2019-01-30T19:37:38.196Z,5.07
2019-01-30T19:40:09.162Z,4.13
2019-01-30T19:42:39.583Z,5.20
2019-01-30T19:45:12.542Z,10.13
2019-01-30T19:47:42.357Z,4.60
2019-01-30T19:50:18.685Z,2.87
2019-01-30T19:52:50.651Z,5.47
2019-01-30T19:55:23.589Z,3.07
2019-01-30T19:57:54.553Z,3.50
2019-01-30T20:00:27.626Z,6.00
2019-01-30T20:02:57.959Z,4.80
2019-01-30T20:05:29.453Z,2.33
2019-01-30T20:07:59.914Z,4.00
2019-01-30T20:10:32.336Z,1.93
2019-01-30T20:13:02.881Z,3.27
2019-01-30T20:15:33.553Z,9.27
2019-01-30T20:18:04.005Z,1.47
2019-01-30T20:20:34.767Z,2.47
2019-01-30T20:23:07.054Z,1.67
2019-01-30T20:25:38.100Z,4.07
2019-01-30T20:28:09.788Z,3.80
2019-01-30T20:30:41.559Z,3.77
2019-01-30T20:33:11.913Z,2.50
2019-01-30T20:35:42.419Z,2.77
2019-01-30T20:38:13.498Z,3.83
2019-01-30T20:40:46.256Z,5.37
2019-01-30T20:43:17.302Z,2.90
2019-01-30T20:45:50.060Z,6.93
2019-01-30T20:48:21.847Z,3.50
2019-01-30T20:50:52.141Z,3.77
2019-01-30T20:53:26.052Z,4.43
2019-01-30T20:55:56.765Z,7.00
2019-01-30T20:58:27.766Z,7.80
2019-01-30T21:00:58.625Z,11.43
2019-01-30T21:03:30.957Z,12.00
2019-01-30T21:06:06.512Z,8.70
2019-01-30T21:08:38.178Z,9.53
2019-01-30T21:11:11.241Z,13.07
2019-01-30T21:13:42.218Z,6.23
2019-01-30T21:16:13.374Z,8.67
2019-01-30T21:18:43.941Z,7.03
2019-01-30T21:21:14.367Z,8.27
2019-01-30T21:23:45.708Z,6.33
2019-01-30T21:26:16.753Z,8.93
2019-01-30T21:28:47.219Z,6.13
2019-01-30T21:31:18.756Z,4.83
2019-01-30T21:33:50.335Z,7.50
2019-01-30T21:36:20.869Z,16.63
2019-01-30T21:38:51.145Z,4.90
2019-01-30T21:41:21.464Z,4.00
2019-01-30T21:43:51.804Z,8.87
2019-01-30T21:46:22.672Z,8.60
2019-01-30T21:48:55.300Z,12.03
2019-01-30T21:51:25.011Z,8.10
2019-01-30T21:53:55.410Z,8.27
2019-01-30T21:56:25.981Z,10.33
2019-01-30T21:58:56.197Z,21.77
2019-01-30T22:01:26.661Z,20.63
2019-01-30T22:03:57.042Z,8.87
2019-01-30T22:06:27.742Z,7.17
2019-01-30T22:08:57.942Z,7.03
2019-01-30T22:11:28.133Z,6.90
2019-01-30T22:13:58.649Z,6.53
2019-01-30T22:16:29.393Z,6.30
2019-01-30T22:19:00.901Z,4.77
2019-01-30T22:21:31.291Z,4.93
2019-01-30T22:24:05.669Z,3.67
2019-01-30T22:26:34.284Z,5.20
2019-01-30T22:29:04.570Z,6.70
2019-01-30T22:31:34.932Z,5.13
2019-01-30T22:34:05.608Z,4.10
2019-01-30T22:36:35.898Z,3.10
2019-01-30T22:39:08.631Z,5.03
2019-01-30T22:41:38.783Z,4.53
2019-01-30T22:44:10.815Z,3.10
2019-01-30T22:46:41.067Z,2.00
2019-01-30T22:49:11.273Z,2.77
2019-01-30T22:51:41.583Z,4.77
2019-01-30T22:54:11.859Z,5.17
2019-01-30T22:56:42.633Z,11.53
2019-01-30T22:59:12.875Z,5.00
2019-01-30T23:02:00.503Z,3.57
2019-01-30T23:04:53.976Z,2.27
2019-01-30T23:07:49.206Z,4.17
2019-01-30T23:10:50.934Z,2.93
2019-01-30T23:13:36.086Z,2.17
2019-01-30T23:16:31.851Z,3.10
2019-01-30T23:19:47.303Z,2.23
2019-01-30T23:22:46.564Z,5.40
2019-01-30T23:25:41.004Z,5.73
2019-01-30T23:28:35.618Z,4.13
2019-01-30T23:31:32.401Z,5.37
2019-01-30T23:34:25.121Z,2.60
2019-01-30T23:37:27.720Z,3.57
2019-01-30T23:40:22.293Z,1.97
2019-01-30T23:43:08.445Z,4.27
2019-01-30T23:45:55.814Z,2.97
2019-01-30T23:49:18.052Z,2.93
2019-01-30T23:52:41.412Z,2.37
2019-01-30T23:55:24.033Z,2.23
2019-01-30T23:58:23.827Z,3.50
